sensor_id;sensor_type;location;lat;lon;timestamp;temperature;humidity
79049;DHT22;68680;50.764;6.120;2023-07-08T00:01:15;19.90;70.80
79049;DHT22;68680;50.764;6.120;2023-07-08T00:03:41;19.80;70.90
79049;DHT22;68680;50.764;6.120;2023-07-08T00:06:13;19.80;70.30
79049;DHT22;68680;50.764;6.120;2023-07-08T00:08:41;19.80;69.10
79049;DHT22;68680;50.764;6.120;2023-07-08T00:11:09;19.80;69.10
79049;DHT22;68680;50.764;6.120;2023-07-08T00:13:37;19.80;68.90
79049;DHT22;68680;50.764;6.120;2023-07-08T00:16:03;19.80;70.10
79049;DHT22;68680;50.764;6.120;2023-07-08T00:18:29;19.80;70.30
79049;DHT22;68680;50.764;6.120;2023-07-08T00:20:55;19.80;71.50
79049;DHT22;68680;50.764;6.120;2023-07-08T00:23:21;19.80;69.80
79049;DHT22;68680;50.764;6.120;2023-07-08T00:25:47;19.80;69.70
79049;DHT22;68680;50.764;6.120;2023-07-08T00:28:15;19.80;70.40
79049;DHT22;68680;50.764;6.120;2023-07-08T00:30:44;19.80;71.40
79049;DHT22;68680;50.764;6.120;2023-07-08T00:33:10;19.80;73.60
79049;DHT22;68680;50.764;6.120;2023-07-08T00:35:38;19.80;73.10
79049;DHT22;68680;50.764;6.120;2023-07-08T00:38:12;19.70;73.60
79049;DHT22;68680;50.764;6.120;2023-07-08T00:40:48;19.80;73.90
79049;DHT22;68680;50.764;6.120;2023-07-08T00:43:17;19.70;73.40
79049;DHT22;68680;50.764;6.120;2023-07-08T00:45:51;19.70;74.50
79049;DHT22;68680;50.764;6.120;2023-07-08T00:48:24;19.70;75.70
79049;DHT22;68680;50.764;6.120;2023-07-08T00:50:54;19.60;76.70
79049;DHT22;68680;50.764;6.120;2023-07-08T00:53:24;19.60;76.20
79049;DHT22;68680;50.764;6.120;2023-07-08T00:55:53;19.50;77.90
79049;DHT22;68680;50.764;6.120;2023-07-08T00:58:24;19.50;78.70
79049;DHT22;68680;50.764;6.120;2023-07-08T01:00:54;19.50;78.50
79049;DHT22;68680;50.764;6.120;2023-07-08T01:03:21;19.40;80.40
79049;DHT22;68680;50.764;6.120;2023-07-08T01:05:47;19.50;80.80
79049;DHT22;68680;50.764;6.120;2023-07-08T01:08:15;19.40;79.70
79049;DHT22;68680;50.764;6.120;2023-07-08T01:10:49;19.50;80.20
79049;DHT22;68680;50.764;6.120;2023-07-08T01:13:18;19.50;80.60
79049;DHT22;68680;50.764;6.120;2023-07-08T01:15:47;19.50;82.20
79049;DHT22;68680;50.764;6.120;2023-07-08T01:18:16;19.40;80.90
79049;DHT22;68680;50.764;6.120;2023-07-08T01:20:43;19.50;80.50
79049;DHT22;68680;50.764;6.120;2023-07-08T01:23:12;19.40;79.80
79049;DHT22;68680;50.764;6.120;2023-07-08T01:25:39;19.40;78.40
79049;DHT22;68680;50.764;6.120;2023-07-08T01:28:08;19.30;77.50
79049;DHT22;68680;50.764;6.120;2023-07-08T01:30:35;19.30;77.40
79049;DHT22;68680;50.764;6.120;2023-07-08T01:33:04;19.30;80.40
79049;DHT22;68680;50.764;6.120;2023-07-08T01:35:37;19.20;82.20
79049;DHT22;68680;50.764;6.120;2023-07-08T01:38:05;19.20;82.30
79049;DHT22;68680;50.764;6.120;2023-07-08T01:40:38;19.20;84.50
79049;DHT22;68680;50.764;6.120;2023-07-08T01:43:13;19.20;84.10
79049;DHT22;68680;50.764;6.120;2023-07-08T01:45:40;19.20;83.40
79049;DHT22;68680;50.764;6.120;2023-07-08T01:48:09;19.20;81.70
79049;DHT22;68680;50.764;6.120;2023-07-08T01:50:38;19.10;83.30
79049;DHT22;68680;50.764;6.120;2023-07-08T01:53:10;19.10;79.90
79049;DHT22;68680;50.764;6.120;2023-07-08T01:55:41;19.10;81.20
79049;DHT22;68680;50.764;6.120;2023-07-08T01:58:06;19.10;81.20
79049;DHT22;68680;50.764;6.120;2023-07-08T02:00:32;19.10;84.00
79049;DHT22;68680;50.764;6.120;2023-07-08T02:02:58;19.10;88.40
79049;DHT22;68680;50.764;6.120;2023-07-08T02:05:24;19.00;86.20
79049;DHT22;68680;50.764;6.120;2023-07-08T02:07:50;19.10;88.00
79049;DHT22;68680;50.764;6.120;2023-07-08T02:10:15;19.00;88.50
79049;DHT22;68680;50.764;6.120;2023-07-08T02:12:43;19.00;88.20
79049;DHT22;68680;50.764;6.120;2023-07-08T02:15:09;18.90;88.90
79049;DHT22;68680;50.764;6.120;2023-07-08T02:17:35;18.80;90.10
79049;DHT22;68680;50.764;6.120;2023-07-08T02:20:01;18.80;90.40
79049;DHT22;68680;50.764;6.120;2023-07-08T02:22:27;18.80;91.60
79049;DHT22;68680;50.764;6.120;2023-07-08T02:24:53;18.70;90.30
79049;DHT22;68680;50.764;6.120;2023-07-08T02:27:19;18.70;90.10
79049;DHT22;68680;50.764;6.120;2023-07-08T02:29:46;18.70;90.60
79049;DHT22;68680;50.764;6.120;2023-07-08T02:32:12;18.60;90.40
79049;DHT22;68680;50.764;6.120;2023-07-08T02:34:38;18.60;89.30
79049;DHT22;68680;50.764;6.120;2023-07-08T02:37:03;18.60;88.30
79049;DHT22;68680;50.764;6.120;2023-07-08T02:39:29;18.50;85.90
79049;DHT22;68680;50.764;6.120;2023-07-08T02:41:55;18.40;82.70
79049;DHT22;68680;50.764;6.120;2023-07-08T02:44:21;18.30;83.40
79049;DHT22;68680;50.764;6.120;2023-07-08T02:46:48;18.20;85.60
79049;DHT22;68680;50.764;6.120;2023-07-08T02:49:14;18.10;86.00
79049;DHT22;68680;50.764;6.120;2023-07-08T02:51:40;18.00;83.90
79049;DHT22;68680;50.764;6.120;2023-07-08T02:54:05;18.00;82.90
79049;DHT22;68680;50.764;6.120;2023-07-08T02:56:31;18.00;84.00
79049;DHT22;68680;50.764;6.120;2023-07-08T02:58:57;18.00;83.30
79049;DHT22;68680;50.764;6.120;2023-07-08T03:01:23;18.00;85.50
79049;DHT22;68680;50.764;6.120;2023-07-08T03:03:50;18.00;83.50
79049;DHT22;68680;50.764;6.120;2023-07-08T03:06:16;17.80;83.30
79049;DHT22;68680;50.764;6.120;2023-07-08T03:08:41;17.80;84.20
79049;DHT22;68680;50.764;6.120;2023-07-08T03:11:08;17.80;81.00
79049;DHT22;68680;50.764;6.120;2023-07-08T03:13:34;17.80;81.30
79049;DHT22;68680;50.764;6.120;2023-07-08T03:16:01;17.80;84.40
79049;DHT22;68680;50.764;6.120;2023-07-08T03:18:28;17.70;83.40
79049;DHT22;68680;50.764;6.120;2023-07-08T03:20:57;17.60;83.20
79049;DHT22;68680;50.764;6.120;2023-07-08T03:23:23;17.60;85.90
79049;DHT22;68680;50.764;6.120;2023-07-08T03:25:49;17.50;84.90
79049;DHT22;68680;50.764;6.120;2023-07-08T03:28:15;17.40;84.20
79049;DHT22;68680;50.764;6.120;2023-07-08T03:30:42;17.40;83.80
79049;DHT22;68680;50.764;6.120;2023-07-08T03:33:08;17.40;83.70
79049;DHT22;68680;50.764;6.120;2023-07-08T03:35:34;17.50;81.70
79049;DHT22;68680;50.764;6.120;2023-07-08T03:38:02;17.50;83.30
79049;DHT22;68680;50.764;6.120;2023-07-08T03:40:28;17.50;82.70
79049;DHT22;68680;50.764;6.120;2023-07-08T03:42:54;17.30;83.10
79049;DHT22;68680;50.764;6.120;2023-07-08T03:45:19;17.20;85.40
79049;DHT22;68680;50.764;6.120;2023-07-08T03:47:45;17.20;84.80
79049;DHT22;68680;50.764;6.120;2023-07-08T03:50:17;17.30;83.40
79049;DHT22;68680;50.764;6.120;2023-07-08T03:52:45;17.30;85.10
79049;DHT22;68680;50.764;6.120;2023-07-08T03:55:12;17.30;85.20
79049;DHT22;68680;50.764;6.120;2023-07-08T03:57:38;17.30;85.80
79049;DHT22;68680;50.764;6.120;2023-07-08T04:00:05;17.40;86.90
79049;DHT22;68680;50.764;6.120;2023-07-08T04:02:32;17.30;86.80
79049;DHT22;68680;50.764;6.120;2023-07-08T04:04:57;17.40;84.10
79049;DHT22;68680;50.764;6.120;2023-07-08T04:07:23;17.40;84.60
79049;DHT22;68680;50.764;6.120;2023-07-08T04:09:49;17.30;83.80
79049;DHT22;68680;50.764;6.120;2023-07-08T04:12:16;17.20;85.80
79049;DHT22;68680;50.764;6.120;2023-07-08T04:14:43;17.20;87.30
79049;DHT22;68680;50.764;6.120;2023-07-08T04:17:09;17.20;87.80
79049;DHT22;68680;50.764;6.120;2023-07-08T04:19:36;17.20;88.70
79049;DHT22;68680;50.764;6.120;2023-07-08T04:22:02;17.20;90.10
79049;DHT22;68680;50.764;6.120;2023-07-08T04:24:28;17.30;89.40
79049;DHT22;68680;50.764;6.120;2023-07-08T04:26:54;17.30;88.20
79049;DHT22;68680;50.764;6.120;2023-07-08T04:29:22;17.30;86.90
79049;DHT22;68680;50.764;6.120;2023-07-08T04:31:49;17.30;86.50
79049;DHT22;68680;50.764;6.120;2023-07-08T04:34:15;17.30;86.90
79049;DHT22;68680;50.764;6.120;2023-07-08T04:36:42;17.40;86.20
79049;DHT22;68680;50.764;6.120;2023-07-08T04:39:09;17.40;87.50
79049;DHT22;68680;50.764;6.120;2023-07-08T04:41:36;17.50;86.60
79049;DHT22;68680;50.764;6.120;2023-07-08T04:44:03;17.60;83.10
79049;DHT22;68680;50.764;6.120;2023-07-08T04:46:35;17.60;84.20
79049;DHT22;68680;50.764;6.120;2023-07-08T04:49:02;17.70;84.20
79049;DHT22;68680;50.764;6.120;2023-07-08T04:51:29;17.80;86.30
79049;DHT22;68680;50.764;6.120;2023-07-08T04:53:55;17.80;84.70
79049;DHT22;68680;50.764;6.120;2023-07-08T04:56:21;17.80;83.60
79049;DHT22;68680;50.764;6.120;2023-07-08T04:58:46;17.80;84.10
79049;DHT22;68680;50.764;6.120;2023-07-08T05:01:12;17.90;84.30
79049;DHT22;68680;50.764;6.120;2023-07-08T05:03:39;17.90;84.10
79049;DHT22;68680;50.764;6.120;2023-07-08T05:06:05;17.90;85.90
79049;DHT22;68680;50.764;6.120;2023-07-08T05:08:31;17.90;86.50
79049;DHT22;68680;50.764;6.120;2023-07-08T05:10:57;18.00;87.40
79049;DHT22;68680;50.764;6.120;2023-07-08T05:13:23;18.00;89.30
79049;DHT22;68680;50.764;6.120;2023-07-08T05:15:49;18.00;90.90
79049;DHT22;68680;50.764;6.120;2023-07-08T05:18:14;18.00;91.60
79049;DHT22;68680;50.764;6.120;2023-07-08T05:20:41;18.00;91.10
79049;DHT22;68680;50.764;6.120;2023-07-08T05:23:07;18.00;90.90
79049;DHT22;68680;50.764;6.120;2023-07-08T05:25:33;18.10;90.70
79049;DHT22;68680;50.764;6.120;2023-07-08T05:27:59;18.10;90.10
79049;DHT22;68680;50.764;6.120;2023-07-08T05:30:25;18.10;89.70
79049;DHT22;68680;50.764;6.120;2023-07-08T05:32:50;18.20;90.10
79049;DHT22;68680;50.764;6.120;2023-07-08T05:35:16;18.30;91.10
79049;DHT22;68680;50.764;6.120;2023-07-08T05:37:43;18.30;90.90
79049;DHT22;68680;50.764;6.120;2023-07-08T05:40:09;18.40;90.70
79049;DHT22;68680;50.764;6.120;2023-07-08T05:42:35;18.40;90.70
79049;DHT22;68680;50.764;6.120;2023-07-08T05:45:01;18.50;91.00
79049;DHT22;68680;50.764;6.120;2023-07-08T05:47:28;18.70;90.90
79049;DHT22;68680;50.764;6.120;2023-07-08T05:49:53;18.80;90.90
79049;DHT22;68680;50.764;6.120;2023-07-08T05:52:19;18.90;91.20
79049;DHT22;68680;50.764;6.120;2023-07-08T05:54:46;19.00;90.30
79049;DHT22;68680;50.764;6.120;2023-07-08T05:57:12;19.10;90.10
79049;DHT22;68680;50.764;6.120;2023-07-08T05:59:38;19.20;89.60
79049;DHT22;68680;50.764;6.120;2023-07-08T06:02:06;19.40;88.60
79049;DHT22;68680;50.764;6.120;2023-07-08T06:04:34;19.50;88.50
79049;DHT22;68680;50.764;6.120;2023-07-08T06:07:00;19.60;87.90
79049;DHT22;68680;50.764;6.120;2023-07-08T06:09:26;19.70;86.00
79049;DHT22;68680;50.764;6.120;2023-07-08T06:11:53;19.80;86.00
79049;DHT22;68680;50.764;6.120;2023-07-08T06:14:19;19.90;86.70
79049;DHT22;68680;50.764;6.120;2023-07-08T06:16:45;20.10;86.90
79049;DHT22;68680;50.764;6.120;2023-07-08T06:19:10;20.30;84.80
79049;DHT22;68680;50.764;6.120;2023-07-08T06:21:36;20.30;84.20
79049;DHT22;68680;50.764;6.120;2023-07-08T06:24:03;20.40;83.20
79049;DHT22;68680;50.764;6.120;2023-07-08T06:26:29;20.50;83.20
79049;DHT22;68680;50.764;6.120;2023-07-08T06:28:56;20.60;84.10
79049;DHT22;68680;50.764;6.120;2023-07-08T06:31:22;20.80;82.10
79049;DHT22;68680;50.764;6.120;2023-07-08T06:33:48;20.90;80.60
79049;DHT22;68680;50.764;6.120;2023-07-08T06:36:14;21.00;77.80
79049;DHT22;68680;50.764;6.120;2023-07-08T06:38:40;21.10;75.00
79049;DHT22;68680;50.764;6.120;2023-07-08T06:41:05;21.30;73.30
79049;DHT22;68680;50.764;6.120;2023-07-08T06:43:31;21.40;70.80
79049;DHT22;68680;50.764;6.120;2023-07-08T06:45:58;21.50;69.00
79049;DHT22;68680;50.764;6.120;2023-07-08T06:48:24;21.70;68.00
79049;DHT22;68680;50.764;6.120;2023-07-08T06:50:50;21.70;67.00
79049;DHT22;68680;50.764;6.120;2023-07-08T06:53:16;21.80;67.50
79049;DHT22;68680;50.764;6.120;2023-07-08T06:55:44;22.00;67.70
79049;DHT22;68680;50.764;6.120;2023-07-08T06:58:10;22.10;68.00
79049;DHT22;68680;50.764;6.120;2023-07-08T07:00:36;22.20;66.10
79049;DHT22;68680;50.764;6.120;2023-07-08T07:03:03;22.30;66.00
79049;DHT22;68680;50.764;6.120;2023-07-08T07:05:29;22.40;65.50
79049;DHT22;68680;50.764;6.120;2023-07-08T07:07:55;22.50;65.50
79049;DHT22;68680;50.764;6.120;2023-07-08T07:10:21;22.60;63.90
79049;DHT22;68680;50.764;6.120;2023-07-08T07:12:47;22.70;64.30
79049;DHT22;68680;50.764;6.120;2023-07-08T07:15:13;22.90;63.00
79049;DHT22;68680;50.764;6.120;2023-07-08T07:17:39;23.00;63.00
79049;DHT22;68680;50.764;6.120;2023-07-08T07:20:07;23.20;63.00
79049;DHT22;68680;50.764;6.120;2023-07-08T07:22:35;23.30;62.50
79049;DHT22;68680;50.764;6.120;2023-07-08T07:25:01;23.40;62.70
79049;DHT22;68680;50.764;6.120;2023-07-08T07:27:27;23.60;62.70
79049;DHT22;68680;50.764;6.120;2023-07-08T07:29:53;23.70;63.00
79049;DHT22;68680;50.764;6.120;2023-07-08T07:32:22;23.90;62.70
79049;DHT22;68680;50.764;6.120;2023-07-08T07:34:49;24.00;60.70
79049;DHT22;68680;50.764;6.120;2023-07-08T07:37:19;24.20;61.10
79049;DHT22;68680;50.764;6.120;2023-07-08T07:39:46;24.30;58.20
79049;DHT22;68680;50.764;6.120;2023-07-08T07:42:13;24.60;57.90
79049;DHT22;68680;50.764;6.120;2023-07-08T07:44:40;24.70;57.80
79049;DHT22;68680;50.764;6.120;2023-07-08T07:47:06;24.90;57.90
79049;DHT22;68680;50.764;6.120;2023-07-08T07:49:33;25.10;56.60
79049;DHT22;68680;50.764;6.120;2023-07-08T07:51:59;25.30;55.00
79049;DHT22;68680;50.764;6.120;2023-07-08T07:54:26;25.50;51.30
79049;DHT22;68680;50.764;6.120;2023-07-08T07:56:52;25.80;49.10
79049;DHT22;68680;50.764;6.120;2023-07-08T07:59:18;26.10;47.00
79049;DHT22;68680;50.764;6.120;2023-07-08T08:01:44;26.20;47.40
79049;DHT22;68680;50.764;6.120;2023-07-08T08:04:10;26.30;47.20
79049;DHT22;68680;50.764;6.120;2023-07-08T08:06:36;26.40;46.30
79049;DHT22;68680;50.764;6.120;2023-07-08T08:09:02;26.60;46.00
79049;DHT22;68680;50.764;6.120;2023-07-08T08:11:30;26.80;45.20
79049;DHT22;68680;50.764;6.120;2023-07-08T08:13:56;26.90;44.40
79049;DHT22;68680;50.764;6.120;2023-07-08T08:16:23;27.20;43.60
79049;DHT22;68680;50.764;6.120;2023-07-08T08:18:48;27.50;42.60
79049;DHT22;68680;50.764;6.120;2023-07-08T08:21:15;27.70;43.00
79049;DHT22;68680;50.764;6.120;2023-07-08T08:23:41;27.70;44.00
79049;DHT22;68680;50.764;6.120;2023-07-08T08:26:07;27.80;42.90
79049;DHT22;68680;50.764;6.120;2023-07-08T08:28:34;28.00;42.40
79049;DHT22;68680;50.764;6.120;2023-07-08T08:31:00;28.10;42.60
79049;DHT22;68680;50.764;6.120;2023-07-08T08:33:26;28.20;41.90
79049;DHT22;68680;50.764;6.120;2023-07-08T08:35:52;28.10;42.30
79049;DHT22;68680;50.764;6.120;2023-07-08T08:38:17;28.10;42.30
79049;DHT22;68680;50.764;6.120;2023-07-08T08:40:44;28.10;42.20
79049;DHT22;68680;50.764;6.120;2023-07-08T08:43:14;28.10;42.90
79049;DHT22;68680;50.764;6.120;2023-07-08T08:45:50;28.00;42.80
79049;DHT22;68680;50.764;6.120;2023-07-08T08:48:24;28.00;43.00
79049;DHT22;68680;50.764;6.120;2023-07-08T08:50:54;28.10;42.50
79049;DHT22;68680;50.764;6.120;2023-07-08T08:53:23;28.20;41.50
79049;DHT22;68680;50.764;6.120;2023-07-08T08:55:54;28.30;41.90
79049;DHT22;68680;50.764;6.120;2023-07-08T08:58:30;28.20;42.10
79049;DHT22;68680;50.764;6.120;2023-07-08T09:01:04;28.10;42.20
79049;DHT22;68680;50.764;6.120;2023-07-08T09:03:37;28.00;43.30
79049;DHT22;68680;50.764;6.120;2023-07-08T09:06:14;27.90;43.30
79049;DHT22;68680;50.764;6.120;2023-07-08T09:08:42;28.00;43.60
79049;DHT22;68680;50.764;6.120;2023-07-08T09:11:17;28.00;42.10
79049;DHT22;68680;50.764;6.120;2023-07-08T09:13:47;28.10;42.90
79049;DHT22;68680;50.764;6.120;2023-07-08T09:16:20;28.40;43.50
79049;DHT22;68680;50.764;6.120;2023-07-08T09:18:59;28.40;42.60
79049;DHT22;68680;50.764;6.120;2023-07-08T09:21:40;28.60;42.70
79049;DHT22;68680;50.764;6.120;2023-07-08T09:24:18;28.70;42.00
79049;DHT22;68680;50.764;6.120;2023-07-08T09:26:52;28.80;40.30
79049;DHT22;68680;50.764;6.120;2023-07-08T09:29:22;28.90;40.60
79049;DHT22;68680;50.764;6.120;2023-07-08T09:31:49;28.90;41.10
79049;DHT22;68680;50.764;6.120;2023-07-08T09:34:20;28.90;41.20
79049;DHT22;68680;50.764;6.120;2023-07-08T09:36:49;29.00;41.30
79049;DHT22;68680;50.764;6.120;2023-07-08T09:39:18;29.00;41.80
79049;DHT22;68680;50.764;6.120;2023-07-08T09:41:47;29.10;41.00
79049;DHT22;68680;50.764;6.120;2023-07-08T09:44:17;29.10;40.60
79049;DHT22;68680;50.764;6.120;2023-07-08T09:46:48;29.20;39.60
79049;DHT22;68680;50.764;6.120;2023-07-08T09:49:20;29.20;40.10
79049;DHT22;68680;50.764;6.120;2023-07-08T09:51:49;29.20;40.30
79049;DHT22;68680;50.764;6.120;2023-07-08T09:54:16;29.20;40.90
79049;DHT22;68680;50.764;6.120;2023-07-08T09:56:47;29.10;39.20
79049;DHT22;68680;50.764;6.120;2023-07-08T09:59:22;29.20;39.30
79049;DHT22;68680;50.764;6.120;2023-07-08T10:01:59;29.20;38.70
79049;DHT22;68680;50.764;6.120;2023-07-08T10:04:26;29.20;40.10
79049;DHT22;68680;50.764;6.120;2023-07-08T10:06:54;29.30;41.70
79049;DHT22;68680;50.764;6.120;2023-07-08T10:09:23;29.40;39.50
79049;DHT22;68680;50.764;6.120;2023-07-08T10:11:54;29.60;39.40
79049;DHT22;68680;50.764;6.120;2023-07-08T10:14:27;29.70;39.20
79049;DHT22;68680;50.764;6.120;2023-07-08T10:16:59;29.80;38.20
79049;DHT22;68680;50.764;6.120;2023-07-08T10:19:25;29.90;37.70
79049;DHT22;68680;50.764;6.120;2023-07-08T10:21:59;30.00;37.90
79049;DHT22;68680;50.764;6.120;2023-07-08T10:24:45;29.90;37.00
79049;DHT22;68680;50.764;6.120;2023-07-08T10:27:23;29.80;37.50
79049;DHT22;68680;50.764;6.120;2023-07-08T10:30:03;29.90;36.70
79049;DHT22;68680;50.764;6.120;2023-07-08T10:32:48;30.10;36.20
79049;DHT22;68680;50.764;6.120;2023-07-08T10:35:34;30.10;36.40
79049;DHT22;68680;50.764;6.120;2023-07-08T10:38:06;30.20;36.60
79049;DHT22;68680;50.764;6.120;2023-07-08T10:40:53;30.30;36.60
79049;DHT22;68680;50.764;6.120;2023-07-08T10:43:42;30.60;35.70
79049;DHT22;68680;50.764;6.120;2023-07-08T10:46:24;30.50;35.90
79049;DHT22;68680;50.764;6.120;2023-07-08T10:49:05;30.40;35.40
79049;DHT22;68680;50.764;6.120;2023-07-08T10:51:42;30.40;37.30
79049;DHT22;68680;50.764;6.120;2023-07-08T10:54:36;30.20;36.60
79049;DHT22;68680;50.764;6.120;2023-07-08T10:57:32;30.10;37.00
79049;DHT22;68680;50.764;6.120;2023-07-08T11:00:19;30.10;37.80
79049;DHT22;68680;50.764;6.120;2023-07-08T11:03:10;30.30;37.20
79049;DHT22;68680;50.764;6.120;2023-07-08T11:06:00;30.50;37.00
79049;DHT22;68680;50.764;6.120;2023-07-08T11:08:33;30.60;37.60
79049;DHT22;68680;50.764;6.120;2023-07-08T11:11:08;31.00;34.40
79049;DHT22;68680;50.764;6.120;2023-07-08T11:13:44;31.00;34.40
79049;DHT22;68680;50.764;6.120;2023-07-08T11:16:17;31.00;33.20
79049;DHT22;68680;50.764;6.120;2023-07-08T11:18:53;30.80;34.60
79049;DHT22;68680;50.764;6.120;2023-07-08T11:21:26;30.70;34.00
79049;DHT22;68680;50.764;6.120;2023-07-08T11:24:02;30.60;34.80
79049;DHT22;68680;50.764;6.120;2023-07-08T11:26:39;30.70;35.20
79049;DHT22;68680;50.764;6.120;2023-07-08T11:29:15;31.00;35.30
79049;DHT22;68680;50.764;6.120;2023-07-08T11:31:44;30.90;35.00
79049;DHT22;68680;50.764;6.120;2023-07-08T11:34:12;31.00;34.50
79049;DHT22;68680;50.764;6.120;2023-07-08T11:36:44;31.20;34.20
79049;DHT22;68680;50.764;6.120;2023-07-08T11:39:27;31.30;34.20
79049;DHT22;68680;50.764;6.120;2023-07-08T11:42:05;31.20;34.20
79049;DHT22;68680;50.764;6.120;2023-07-08T11:44:42;31.10;34.60
79049;DHT22;68680;50.764;6.120;2023-07-08T11:47:15;31.10;34.20
79049;DHT22;68680;50.764;6.120;2023-07-08T11:49:46;31.20;34.20
79049;DHT22;68680;50.764;6.120;2023-07-08T11:52:18;31.40;33.90
79049;DHT22;68680;50.764;6.120;2023-07-08T11:54:46;31.60;33.50
79049;DHT22;68680;50.764;6.120;2023-07-08T11:57:17;31.80;34.10
79049;DHT22;68680;50.764;6.120;2023-07-08T12:00:10;31.90;33.50
79049;DHT22;68680;50.764;6.120;2023-07-08T12:02:49;32.00;32.90
79049;DHT22;68680;50.764;6.120;2023-07-08T12:05:17;32.10;34.50
79049;DHT22;68680;50.764;6.120;2023-07-08T12:07:57;32.10;34.00
79049;DHT22;68680;50.764;6.120;2023-07-08T12:10:28;32.30;33.20
79049;DHT22;68680;50.764;6.120;2023-07-08T12:12:58;32.50;33.30
79049;DHT22;68680;50.764;6.120;2023-07-08T12:15:25;32.60;32.90
79049;DHT22;68680;50.764;6.120;2023-07-08T12:17:55;32.80;32.30
79049;DHT22;68680;50.764;6.120;2023-07-08T12:20:26;32.80;32.50
79049;DHT22;68680;50.764;6.120;2023-07-08T12:22:54;32.70;32.60
79049;DHT22;68680;50.764;6.120;2023-07-08T12:25:23;32.50;32.00
79049;DHT22;68680;50.764;6.120;2023-07-08T12:27:51;32.50;32.40
79049;DHT22;68680;50.764;6.120;2023-07-08T12:30:18;32.40;35.00
79049;DHT22;68680;50.764;6.120;2023-07-08T12:32:44;32.30;34.50
79049;DHT22;68680;50.764;6.120;2023-07-08T12:35:21;32.40;35.70
79049;DHT22;68680;50.764;6.120;2023-07-08T12:37:49;32.30;36.70
79049;DHT22;68680;50.764;6.120;2023-07-08T12:40:19;32.20;37.30
79049;DHT22;68680;50.764;6.120;2023-07-08T12:42:46;32.00;36.90
79049;DHT22;68680;50.764;6.120;2023-07-08T12:45:14;31.70;37.00
79049;DHT22;68680;50.764;6.120;2023-07-08T12:47:40;31.90;36.90
79049;DHT22;68680;50.764;6.120;2023-07-08T12:50:08;32.50;38.00
79049;DHT22;68680;50.764;6.120;2023-07-08T12:52:35;33.30;36.10
79049;DHT22;68680;50.764;6.120;2023-07-08T12:55:01;34.20;34.60
79049;DHT22;68680;50.764;6.120;2023-07-08T12:57:28;34.80;33.30
79049;DHT22;68680;50.764;6.120;2023-07-08T12:59:54;35.60;32.80
79049;DHT22;68680;50.764;6.120;2023-07-08T13:02:21;35.40;31.80
79049;DHT22;68680;50.764;6.120;2023-07-08T13:04:53;35.20;32.60
79049;DHT22;68680;50.764;6.120;2023-07-08T13:07:34;35.80;30.00
79049;DHT22;68680;50.764;6.120;2023-07-08T13:10:03;36.70;29.90
79049;DHT22;68680;50.764;6.120;2023-07-08T13:12:32;37.40;29.80
79049;DHT22;68680;50.764;6.120;2023-07-08T13:15:02;37.60;30.00
79049;DHT22;68680;50.764;6.120;2023-07-08T13:17:28;37.60;31.00
79049;DHT22;68680;50.764;6.120;2023-07-08T13:19:55;37.10;30.70
79049;DHT22;68680;50.764;6.120;2023-07-08T13:22:22;37.00;31.80
79049;DHT22;68680;50.764;6.120;2023-07-08T13:24:58;36.80;31.60
79049;DHT22;68680;50.764;6.120;2023-07-08T13:27:25;36.60;31.40
79049;DHT22;68680;50.764;6.120;2023-07-08T13:29:54;36.20;31.90
79049;DHT22;68680;50.764;6.120;2023-07-08T13:32:29;35.50;32.80
79049;DHT22;68680;50.764;6.120;2023-07-08T13:34:56;34.80;33.00
79049;DHT22;68680;50.764;6.120;2023-07-08T13:37:22;34.50;33.90
79049;DHT22;68680;50.764;6.120;2023-07-08T13:39:48;34.40;33.90
79049;DHT22;68680;50.764;6.120;2023-07-08T13:42:13;34.30;34.10
79049;DHT22;68680;50.764;6.120;2023-07-08T13:44:43;33.90;33.30
79049;DHT22;68680;50.764;6.120;2023-07-08T13:47:23;33.80;35.30
79049;DHT22;68680;50.764;6.120;2023-07-08T13:49:58;33.70;35.20
79049;DHT22;68680;50.764;6.120;2023-07-08T13:52:30;33.70;34.90
79049;DHT22;68680;50.764;6.120;2023-07-08T13:55:00;33.90;36.20
79049;DHT22;68680;50.764;6.120;2023-07-08T13:57:31;35.10;33.70
79049;DHT22;68680;50.764;6.120;2023-07-08T13:59:59;35.10;33.20
79049;DHT22;68680;50.764;6.120;2023-07-08T14:02:30;34.90;33.70
79049;DHT22;68680;50.764;6.120;2023-07-08T14:04:57;35.70;32.90
79049;DHT22;68680;50.764;6.120;2023-07-08T14:07:27;35.70;32.70
79049;DHT22;68680;50.764;6.120;2023-07-08T14:09:54;36.10;32.00
79049;DHT22;68680;50.764;6.120;2023-07-08T14:12:19;35.80;31.80
79049;DHT22;68680;50.764;6.120;2023-07-08T14:14:45;36.20;32.40
79049;DHT22;68680;50.764;6.120;2023-07-08T14:17:17;35.40;33.10
79049;DHT22;68680;50.764;6.120;2023-07-08T14:19:47;34.50;33.50
79049;DHT22;68680;50.764;6.120;2023-07-08T14:22:22;33.90;33.80
79049;DHT22;68680;50.764;6.120;2023-07-08T14:24:49;33.40;34.90
79049;DHT22;68680;50.764;6.120;2023-07-08T14:27:16;32.90;36.40
79049;DHT22;68680;50.764;6.120;2023-07-08T14:29:42;32.40;37.20
79049;DHT22;68680;50.764;6.120;2023-07-08T14:32:12;32.10;37.00
79049;DHT22;68680;50.764;6.120;2023-07-08T14:34:38;31.80;37.70
79049;DHT22;68680;50.764;6.120;2023-07-08T14:37:13;31.50;38.20
79049;DHT22;68680;50.764;6.120;2023-07-08T14:39:39;31.30;37.60
79049;DHT22;68680;50.764;6.120;2023-07-08T14:42:07;31.20;37.40
79049;DHT22;68680;50.764;6.120;2023-07-08T14:44:36;31.10;39.20
79049;DHT22;68680;50.764;6.120;2023-07-08T14:47:04;31.00;40.20
79049;DHT22;68680;50.764;6.120;2023-07-08T14:49:34;30.90;39.50
79049;DHT22;68680;50.764;6.120;2023-07-08T14:52:00;30.80;39.00
79049;DHT22;68680;50.764;6.120;2023-07-08T14:54:27;30.80;38.70
79049;DHT22;68680;50.764;6.120;2023-07-08T14:56:56;30.70;39.20
79049;DHT22;68680;50.764;6.120;2023-07-08T14:59:24;30.70;39.10
79049;DHT22;68680;50.764;6.120;2023-07-08T15:01:53;30.70;39.40
79049;DHT22;68680;50.764;6.120;2023-07-08T15:04:20;30.60;40.00
79049;DHT22;68680;50.764;6.120;2023-07-08T15:06:46;30.60;40.50
79049;DHT22;68680;50.764;6.120;2023-07-08T15:09:13;30.60;40.90
79049;DHT22;68680;50.764;6.120;2023-07-08T15:11:41;30.50;41.10
79049;DHT22;68680;50.764;6.120;2023-07-08T15:14:13;30.50;40.70
79049;DHT22;68680;50.764;6.120;2023-07-08T15:16:43;30.60;40.60
79049;DHT22;68680;50.764;6.120;2023-07-08T15:19:10;30.60;40.80
79049;DHT22;68680;50.764;6.120;2023-07-08T15:21:36;30.80;40.60
79049;DHT22;68680;50.764;6.120;2023-07-08T15:24:01;30.80;40.10
79049;DHT22;68680;50.764;6.120;2023-07-08T15:26:28;30.80;40.40
79049;DHT22;68680;50.764;6.120;2023-07-08T15:28:55;30.70;40.70
79049;DHT22;68680;50.764;6.120;2023-07-08T15:31:23;30.70;40.70
79049;DHT22;68680;50.764;6.120;2023-07-08T15:33:51;30.60;41.20
79049;DHT22;68680;50.764;6.120;2023-07-08T15:36:18;30.60;42.00
79049;DHT22;68680;50.764;6.120;2023-07-08T15:38:44;30.60;42.40
79049;DHT22;68680;50.764;6.120;2023-07-08T15:41:18;30.50;43.10